createdAt,value
2023-02-14T11:25:13.812Z,1032.50
2023-02-14T11:26:13.776Z,1032.54
2023-02-14T11:27:13.820Z,1032.50
2023-02-14T11:28:13.754Z,1032.47
2023-02-14T11:29:13.769Z,1032.44
2023-02-14T11:30:13.794Z,1032.46
2023-02-14T11:31:13.763Z,1032.42
2023-02-14T11:32:13.695Z,1032.44
2023-02-14T11:33:13.703Z,1032.45
2023-02-14T11:34:13.653Z,1032.44
2023-02-14T11:35:13.682Z,1032.39
2023-02-14T11:36:13.652Z,1032.40
2023-02-14T11:37:26.898Z,1032.42
2023-02-14T11:38:13.594Z,1032.43
2023-02-14T11:39:13.594Z,1032.39
2023-02-14T11:40:13.561Z,1032.39
2023-02-14T11:41:13.578Z,1032.40
2023-02-14T11:42:13.538Z,1032.36
2023-02-14T11:43:14.795Z,1032.37
2023-02-14T11:44:13.550Z,1032.32
2023-02-14T11:45:13.547Z,1032.31
2023-02-14T11:46:13.534Z,1032.28
2023-02-14T11:47:13.555Z,1032.25
2023-02-14T11:48:13.458Z,1032.21
2023-02-14T11:49:13.504Z,1032.26
2023-02-14T11:50:13.509Z,1032.15
2023-02-14T11:51:13.628Z,1032.16
2023-02-14T11:52:13.449Z,1032.13
2023-02-14T11:53:13.448Z,1032.08
2023-02-14T11:54:13.371Z,1032.08
2023-02-14T11:55:13.440Z,1032.09
2023-02-14T11:56:13.444Z,1032.06
2023-02-14T11:57:13.354Z,1032.04
2023-02-14T11:58:13.312Z,1032.04
2023-02-14T11:59:13.300Z,1032.00
2023-02-14T12:00:13.342Z,1031.98
2023-02-14T12:01:13.372Z,1031.97
2023-02-14T12:02:13.374Z,1031.93
2023-02-14T12:03:13.399Z,1031.96
2023-02-14T12:04:13.323Z,1031.97
2023-02-14T12:05:13.221Z,1031.96
2023-02-14T12:06:13.226Z,1031.96
2023-02-14T12:07:13.197Z,1031.94
2023-02-14T12:08:13.198Z,1031.94
2023-02-14T12:09:13.162Z,1031.93
2023-02-14T12:10:13.177Z,1031.90
2023-02-14T12:11:13.276Z,1031.90
2023-02-14T12:12:13.136Z,1031.85
2023-02-14T12:13:13.107Z,1031.84
2023-02-14T12:14:13.128Z,1031.83
2023-02-14T12:15:13.086Z,1031.78
2023-02-14T12:16:13.122Z,1031.75
2023-02-14T12:17:13.061Z,1031.71
2023-02-14T12:18:13.052Z,1031.72
2023-02-14T12:19:13.022Z,1031.69
2023-02-14T12:20:13.034Z,1031.66
2023-02-14T12:21:13.118Z,1031.65
2023-02-14T12:22:13.000Z,1031.60
2023-02-14T12:23:12.971Z,1031.58
2023-02-14T12:24:12.963Z,1031.57
2023-02-14T12:25:12.987Z,1031.59
2023-02-14T12:26:12.944Z,1031.56
2023-02-14T12:27:12.933Z,1031.54
2023-02-14T12:28:12.921Z,1031.55
2023-02-14T12:29:12.932Z,1031.55
2023-02-14T12:30:12.994Z,1031.57
2023-02-14T12:31:13.018Z,1031.52
2023-02-14T12:32:12.901Z,1031.52
2023-02-14T12:33:12.838Z,1031.49
2023-02-14T12:34:12.833Z,1031.48
2023-02-14T12:35:12.829Z,1031.45
2023-02-14T12:36:12.874Z,1031.43
2023-02-14T12:37:12.795Z,1031.43
2023-02-14T12:38:12.782Z,1031.39
2023-02-14T12:39:12.744Z,1031.38
2023-02-14T12:40:12.743Z,1031.39
2023-02-14T12:41:12.750Z,1031.38
2023-02-14T12:42:12.700Z,1031.37
2023-02-14T12:43:12.697Z,1031.38
2023-02-14T12:44:12.711Z,1031.35
2023-02-14T12:45:12.686Z,1031.35
2023-02-14T12:46:12.691Z,1031.34
2023-02-14T12:47:12.671Z,1031.29
2023-02-14T12:48:15.080Z,1031.31
2023-02-14T12:49:12.626Z,1031.27
2023-02-14T12:50:12.611Z,1031.27
2023-02-14T12:51:12.597Z,1031.23
2023-02-14T12:52:12.596Z,1031.24
2023-02-14T12:53:12.608Z,1031.24
2023-02-14T12:54:12.567Z,1031.22
2023-02-14T12:55:12.548Z,1031.22
2023-02-14T12:56:12.509Z,1031.20
2023-02-14T12:57:12.545Z,1031.19
2023-02-14T12:58:12.525Z,1031.21
2023-02-14T12:59:12.893Z,1031.16
2023-02-14T13:00:12.502Z,1031.22
2023-02-14T13:01:13.245Z,1031.21
2023-02-14T13:02:12.494Z,1031.23
2023-02-14T13:03:12.504Z,1031.20
2023-02-14T13:04:12.414Z,1031.21
2023-02-14T13:05:12.430Z,1031.17
2023-02-14T13:06:12.391Z,1031.19
2023-02-14T13:07:12.373Z,1031.14
2023-02-14T13:08:12.390Z,1031.11
2023-02-14T13:09:12.362Z,1031.12
2023-02-14T13:10:12.375Z,1031.08
2023-02-14T13:11:12.325Z,1031.05
2023-02-14T13:12:12.296Z,1031.08
2023-02-14T13:13:12.318Z,1031.02
2023-02-14T13:14:12.293Z,1031.03
2023-02-14T13:15:12.285Z,1031.01
2023-02-14T13:16:12.271Z,1031.01
2023-02-14T13:17:12.244Z,1031.01
2023-02-14T13:18:12.265Z,1030.99
2023-02-14T13:19:12.232Z,1030.97
2023-02-14T13:20:12.208Z,1030.95
2023-02-14T13:21:12.177Z,1030.99
2023-02-14T13:22:12.168Z,1030.95
2023-02-14T13:23:12.146Z,1030.94
2023-02-14T13:24:12.136Z,1030.93
2023-02-14T13:25:12.145Z,1030.90
2023-02-14T13:26:12.095Z,1030.88
2023-02-14T13:27:12.097Z,1030.89
2023-02-14T13:28:12.094Z,1030.86
2023-02-14T13:29:12.068Z,1030.88
2023-02-14T13:30:12.132Z,1030.86
2023-02-14T13:31:12.229Z,1030.86
2023-02-14T13:32:12.049Z,1030.86
2023-02-14T13:33:12.041Z,1030.84
2023-02-14T13:34:11.999Z,1030.82
2023-02-14T13:35:12.012Z,1030.82
2023-02-14T13:36:12.009Z,1030.82
2023-02-14T13:37:11.964Z,1030.80
2023-02-14T13:38:12.001Z,1030.76
2023-02-14T13:39:11.942Z,1030.79
2023-02-14T13:40:11.927Z,1030.74
2023-02-14T13:41:11.941Z,1030.76
2023-02-14T13:42:11.974Z,1030.75
2023-02-14T13:43:11.898Z,1030.75
2023-02-14T13:44:11.889Z,1030.68
2023-02-14T13:45:14.094Z,1030.64
2023-02-14T13:46:11.887Z,1030.66
2023-02-14T13:47:11.827Z,1030.67
2023-02-14T13:48:11.826Z,1030.68
2023-02-14T13:49:11.898Z,1030.68
2023-02-14T13:50:11.781Z,1030.66
2023-02-14T13:51:11.764Z,1030.64
2023-02-14T13:52:11.770Z,1030.65
2023-02-14T13:53:11.730Z,1030.66
2023-02-14T13:54:11.720Z,1030.62
2023-02-14T13:55:11.700Z,1030.62
2023-02-14T13:56:11.709Z,1030.61
2023-02-14T13:57:11.701Z,1030.61
2023-02-14T13:58:11.680Z,1030.63
2023-02-14T13:59:11.661Z,1030.62
2023-02-14T14:00:11.670Z,1030.64
2023-02-14T14:01:11.660Z,1030.62
2023-02-14T14:02:11.624Z,1030.55
2023-02-14T14:03:11.631Z,1030.58
2023-02-14T14:04:11.679Z,1030.55
2023-02-14T14:05:11.593Z,1030.54
2023-02-14T14:06:11.554Z,1030.53
2023-02-14T14:07:11.544Z,1030.53
2023-02-14T14:08:11.536Z,1030.56
2023-02-14T14:09:11.530Z,1030.53
2023-02-14T14:10:11.533Z,1030.52
2023-02-14T14:11:11.492Z,1030.51
2023-02-14T14:12:11.495Z,1030.45
2023-02-14T14:13:11.456Z,1030.41
2023-02-14T14:14:11.448Z,1030.40
2023-02-14T14:15:11.466Z,1030.42
2023-02-14T14:16:11.506Z,1030.40
2023-02-14T14:17:11.429Z,1030.41
2023-02-14T14:18:11.435Z,1030.34
2023-02-14T14:19:11.381Z,1030.33
2023-02-14T14:20:11.390Z,1030.33
2023-02-14T14:21:11.362Z,1030.32
2023-02-14T14:22:11.381Z,1030.30
2023-02-14T14:23:11.328Z,1030.29
2023-02-14T14:24:11.352Z,1030.31
2023-02-14T14:25:11.317Z,1030.28
2023-02-14T14:26:11.316Z,1030.30
2023-02-14T14:27:11.361Z,1030.28
2023-02-14T14:28:11.297Z,1030.21
2023-02-14T14:29:11.289Z,1030.23
2023-02-14T14:30:11.321Z,1030.19
2023-02-14T14:31:11.301Z,1030.18
2023-02-14T14:32:11.254Z,1030.20
2023-02-14T14:33:11.211Z,1030.23
2023-02-14T14:34:11.242Z,1030.16
2023-02-14T14:35:11.215Z,1030.16
2023-02-14T14:36:11.176Z,1030.17
2023-02-14T14:37:11.163Z,1030.14
2023-02-14T14:38:11.145Z,1030.08
2023-02-14T14:39:11.133Z,1030.07
2023-02-14T14:40:11.185Z,1030.01
2023-02-14T14:41:11.103Z,1030.03
2023-02-14T14:42:11.068Z,1030.02
2023-02-14T14:43:11.077Z,1030.03
2023-02-14T14:44:11.057Z,1029.96
2023-02-14T14:45:11.063Z,1029.97
2023-02-14T14:46:11.081Z,1029.97
2023-02-14T14:47:11.006Z,1029.97
2023-02-14T14:48:10.981Z,1029.98
2023-02-14T14:49:10.987Z,1029.93
2023-02-14T14:50:11.075Z,1029.94
2023-02-14T14:51:10.965Z,1029.91
2023-02-14T14:52:10.984Z,1029.91
2023-02-14T14:53:10.998Z,1029.91
2023-02-14T14:54:10.933Z,1029.89
2023-02-14T14:55:10.942Z,1029.83
2023-02-14T14:56:10.885Z,1029.82
2023-02-14T14:57:10.876Z,1029.78
2023-02-14T14:58:10.922Z,1029.78
2023-02-14T14:59:10.837Z,1029.75
2023-02-14T15:00:10.921Z,1029.77
2023-02-14T15:01:10.894Z,1029.76
2023-02-14T15:02:10.801Z,1029.76
2023-02-14T15:03:10.808Z,1029.79
2023-02-14T15:04:12.344Z,1029.79
2023-02-14T15:05:10.780Z,1029.78
2023-02-14T15:06:10.760Z,1029.79
2023-02-14T15:07:10.746Z,1029.81
2023-02-14T15:08:10.750Z,1029.75
2023-02-14T15:09:10.705Z,1029.71
2023-02-14T15:10:10.736Z,1029.74
2023-02-14T15:11:10.710Z,1029.74
2023-02-14T15:12:10.678Z,1029.68
2023-02-14T15:13:10.676Z,1029.70
2023-02-14T15:14:10.651Z,1029.67
2023-02-14T15:15:10.617Z,1029.70
2023-02-14T15:16:10.743Z,1029.67
2023-02-14T15:17:10.647Z,1029.65
2023-02-14T15:18:10.591Z,1029.66
2023-02-14T15:19:10.568Z,1029.64
2023-02-14T15:20:10.566Z,1029.60
2023-02-14T15:21:10.576Z,1029.63
2023-02-14T15:22:10.551Z,1029.63
2023-02-14T15:23:10.541Z,1029.63
2023-02-14T15:24:10.524Z,1029.60
2023-02-14T15:25:10.503Z,1029.61
2023-02-14T15:26:10.484Z,1029.59
2023-02-14T15:27:10.464Z,1029.59
2023-02-14T15:28:17.989Z,1029.56
2023-02-14T15:29:17.988Z,1029.62
2023-02-14T15:30:19.012Z,1029.57
2023-02-14T15:31:17.998Z,1029.57
2023-02-14T15:32:19.120Z,1029.55
2023-02-14T15:33:17.949Z,1029.53
2023-02-14T15:34:17.905Z,1029.58
2023-02-14T15:35:20.071Z,1029.58
2023-02-14T15:36:17.866Z,1029.58
2023-02-14T15:37:17.869Z,1029.61
2023-02-14T15:38:10.334Z,1029.65
2023-02-14T15:39:10.306Z,1029.60
2023-02-14T15:40:10.296Z,1029.65
2023-02-14T15:41:10.286Z,1029.64
2023-02-14T15:42:10.286Z,1029.65
2023-02-14T15:43:10.257Z,1029.64
2023-02-14T15:44:10.327Z,1029.62
2023-02-14T15:45:10.257Z,1029.62
2023-02-14T15:46:10.326Z,1029.63
2023-02-14T15:47:10.209Z,1029.63
2023-02-14T15:48:10.205Z,1029.66
2023-02-14T15:49:10.193Z,1029.61
2023-02-14T15:50:10.213Z,1029.66
2023-02-14T15:51:10.172Z,1029.66
2023-02-14T15:52:10.139Z,1029.62
2023-02-14T15:53:10.111Z,1029.61
2023-02-14T15:54:10.104Z,1029.59
2023-02-14T15:55:10.095Z,1029.60
2023-02-14T15:56:10.084Z,1029.62
2023-02-14T15:57:10.081Z,1029.59
2023-02-14T15:58:10.066Z,1029.61
2023-02-14T15:59:10.028Z,1029.63
2023-02-14T16:00:10.004Z,1029.64
2023-02-14T16:01:10.012Z,1029.61
2023-02-14T16:02:10.009Z,1029.66
2023-02-14T16:03:09.975Z,1029.69
2023-02-14T16:04:10.282Z,1029.69
2023-02-14T16:05:09.987Z,1029.73
2023-02-14T16:06:09.925Z,1029.74
2023-02-14T16:07:09.922Z,1029.72
2023-02-14T16:08:09.892Z,1029.70
2023-02-14T16:09:09.896Z,1029.67
2023-02-14T16:10:09.894Z,1029.69
2023-02-14T16:11:09.854Z,1029.68
2023-02-14T16:12:09.872Z,1029.67
2023-02-14T16:13:09.830Z,1029.66
2023-02-14T16:14:09.899Z,1029.61
2023-02-14T16:15:09.803Z,1029.68
2023-02-14T16:16:09.893Z,1029.70
2023-02-14T16:17:09.773Z,1029.68
2023-02-14T16:18:09.770Z,1029.69
2023-02-14T16:19:09.733Z,1029.69
2023-02-14T16:20:09.748Z,1029.70
2023-02-14T16:21:09.944Z,1029.76
2023-02-14T16:22:09.724Z,1029.75
2023-02-14T16:23:09.672Z,1029.73
2023-02-14T16:24:09.847Z,1029.81
2023-02-14T16:25:09.683Z,1029.81
2023-02-14T16:26:09.637Z,1029.81
2023-02-14T16:27:09.614Z,1029.81
2023-02-14T16:28:09.647Z,1029.81
2023-02-14T16:29:09.584Z,1029.81
2023-02-14T16:30:09.595Z,1029.81
2023-02-14T16:31:09.663Z,1029.82
2023-02-14T16:32:16.304Z,1029.83
2023-02-14T16:33:10.528Z,1029.76
2023-02-14T16:34:09.522Z,1029.78
2023-02-14T16:35:09.523Z,1029.77
2023-02-14T16:36:09.537Z,1029.75
2023-02-14T16:37:09.554Z,1029.77
2023-02-14T16:38:09.526Z,1029.78
2023-02-14T16:39:09.501Z,1029.73
2023-02-14T16:40:09.432Z,1029.73
2023-02-14T16:41:09.411Z,1029.77
2023-02-14T16:42:09.409Z,1029.73
2023-02-14T16:43:09.399Z,1029.73
2023-02-14T16:44:09.404Z,1029.77
2023-02-14T16:45:09.357Z,1029.75
2023-02-14T16:46:09.417Z,1029.77
2023-02-14T16:47:09.327Z,1029.76
2023-02-14T16:48:09.327Z,1029.78
2023-02-14T16:49:09.347Z,1029.77
2023-02-14T16:50:09.483Z,1029.76
2023-02-14T16:51:09.268Z,1029.78
2023-02-14T16:52:09.252Z,1029.80
2023-02-14T16:53:09.290Z,1029.82
2023-02-14T16:54:09.233Z,1029.85
2023-02-14T16:55:09.211Z,1029.89
2023-02-14T16:56:09.206Z,1029.83
2023-02-14T16:57:09.206Z,1029.86
2023-02-14T16:58:09.197Z,1029.87
2023-02-14T16:59:09.164Z,1029.91
2023-02-14T17:00:09.185Z,1029.94
2023-02-14T17:01:09.229Z,1029.92
2023-02-14T17:02:09.158Z,1029.92
2023-02-14T17:03:09.183Z,1029.93
2023-02-14T17:04:09.147Z,1029.96
2023-02-14T17:05:09.101Z,1029.94
2023-02-14T17:06:09.072Z,1029.94
2023-02-14T17:07:09.080Z,1029.93
2023-02-14T17:08:09.168Z,1029.93
2023-02-14T17:09:09.044Z,1029.95
2023-02-14T17:10:09.038Z,1029.94
2023-02-14T17:11:08.998Z,1029.98
2023-02-14T17:12:09.000Z,1030.00
2023-02-14T17:13:09.001Z,1030.00
2023-02-14T17:14:08.987Z,1029.96
2023-02-14T17:15:09.030Z,1030.02
2023-02-14T17:16:08.999Z,1030.01
2023-02-14T17:17:08.937Z,1030.02
2023-02-14T17:18:08.955Z,1030.02
2023-02-14T17:19:08.961Z,1030.06
2023-02-14T17:20:08.885Z,1030.05
2023-02-14T17:21:08.875Z,1030.02
2023-02-14T17:22:08.912Z,1030.02
2023-02-14T17:23:08.912Z,1030.05
2023-02-14T17:24:08.861Z,1030.04
2023-02-14T17:25:08.815Z,1030.07
2023-02-14T17:26:08.815Z,1030.13
2023-02-14T17:27:08.833Z,1030.13
2023-02-14T17:28:08.787Z,1030.14
2023-02-14T17:29:08.790Z,1030.12
2023-02-14T17:30:08.815Z,1030.14
2023-02-14T17:31:08.928Z,1030.17
2023-02-14T17:32:08.809Z,1030.19
2023-02-14T17:33:08.718Z,1030.19
2023-02-14T17:34:08.708Z,1030.20
2023-02-14T17:35:08.800Z,1030.21
2023-02-14T17:36:10.710Z,1030.25
2023-02-14T17:37:08.696Z,1030.24
2023-02-14T17:38:08.661Z,1030.23
2023-02-14T17:39:08.671Z,1030.21
2023-02-14T17:40:08.672Z,1030.25
2023-02-14T17:41:08.632Z,1030.27
2023-02-14T17:42:10.437Z,1030.28
2023-02-14T17:43:08.627Z,1030.26
2023-02-14T17:44:08.603Z,1030.27
2023-02-14T17:45:08.569Z,1030.28
2023-02-14T17:46:08.684Z,1030.27
2023-02-14T17:47:08.582Z,1030.27
2023-02-14T17:48:10.870Z,1030.26
2023-02-14T17:49:08.559Z,1030.23
2023-02-14T17:50:08.512Z,1030.24
2023-02-14T17:51:08.510Z,1030.22
2023-02-14T17:52:08.494Z,1030.21
2023-02-14T17:53:08.524Z,1030.22
2023-02-14T17:54:08.472Z,1030.20
2023-02-14T17:55:08.539Z,1030.19
2023-02-14T17:56:08.497Z,1030.19
2023-02-14T17:57:08.455Z,1030.15
2023-02-14T17:58:08.409Z,1030.18
2023-02-14T17:59:08.402Z,1030.21
2023-02-14T18:00:09.634Z,1030.21
2023-02-14T18:01:08.373Z,1030.23
2023-02-14T18:02:08.476Z,1030.15
2023-02-14T18:03:08.518Z,1030.18
2023-02-14T18:04:08.382Z,1030.19
2023-02-14T18:05:08.364Z,1030.17
2023-02-14T18:06:09.843Z,1030.18
2023-02-14T18:07:08.332Z,1030.15
2023-02-14T18:08:08.295Z,1030.16
2023-02-14T18:09:08.400Z,1030.14
2023-02-14T18:10:08.289Z,1030.10
2023-02-14T18:11:08.277Z,1030.07
2023-02-14T18:12:12.217Z,1030.08
2023-02-14T18:13:09.247Z,1030.08
2023-02-14T18:14:08.225Z,1030.09
2023-02-14T18:15:08.212Z,1030.06
2023-02-14T18:16:08.288Z,1030.07
2023-02-14T18:17:08.245Z,1030.05
2023-02-14T18:18:10.088Z,1030.06
2023-02-14T18:19:08.191Z,1030.04
2023-02-14T18:20:08.148Z,1030.01
2023-02-14T18:21:08.203Z,1030.08
2023-02-14T18:22:08.136Z,1030.04
2023-02-14T18:23:08.179Z,1030.01
2023-02-14T18:24:08.234Z,1030.03
2023-02-14T18:25:08.080Z,1030.01
2023-02-14T18:26:08.082Z,1030.08
2023-02-14T18:27:08.301Z,1030.07
2023-02-14T18:28:08.028Z,1030.01
2023-02-14T18:29:08.161Z,1030.05
2023-02-14T18:30:08.067Z,1030.03
2023-02-14T18:31:08.205Z,1030.01
2023-02-14T18:32:08.087Z,1030.07
2023-02-14T18:33:08.007Z,1030.04
2023-02-14T18:34:07.968Z,1030.06
2023-02-14T18:35:07.952Z,1030.06
2023-02-14T18:36:07.958Z,1030.09
2023-02-14T18:37:07.941Z,1030.11
2023-02-14T18:38:07.942Z,1030.12
2023-02-14T18:39:07.905Z,1030.06
2023-02-14T18:40:09.669Z,1030.04
2023-02-14T18:41:07.905Z,1030.04
2023-02-14T18:42:07.833Z,1030.04
2023-02-14T18:43:07.833Z,1030.04
2023-02-14T18:44:07.832Z,1030.00
2023-02-14T18:45:07.799Z,1030.01
2023-02-14T18:46:07.819Z,1029.99
2023-02-14T18:47:07.799Z,1029.99
2023-02-14T18:48:07.776Z,1029.99
2023-02-14T18:49:07.742Z,1030.04
2023-02-14T18:50:07.748Z,1030.02
2023-02-14T18:51:07.771Z,1030.01
2023-02-14T18:52:07.752Z,1029.99
2023-02-14T18:53:07.696Z,1029.98
2023-02-14T18:54:07.683Z,1029.95
2023-02-14T18:55:07.690Z,1029.96
2023-02-14T18:56:07.664Z,1029.94
2023-02-14T18:57:07.658Z,1029.95
2023-02-14T18:58:07.909Z,1029.93
2023-02-14T18:59:07.611Z,1029.94
2023-02-14T19:00:07.618Z,1029.95
2023-02-14T19:01:07.780Z,1029.91
2023-02-14T19:02:07.609Z,1029.93
2023-02-14T19:03:07.571Z,1029.95
2023-02-14T19:04:07.580Z,1029.90
2023-02-14T19:05:07.560Z,1029.91
2023-02-14T19:06:07.558Z,1029.86
2023-02-14T19:07:07.523Z,1029.91
2023-02-14T19:08:07.500Z,1029.84
2023-02-14T19:09:07.534Z,1029.85
2023-02-14T19:10:07.480Z,1029.82
2023-02-14T19:11:07.478Z,1029.82
2023-02-14T19:12:07.467Z,1029.84
2023-02-14T19:13:07.446Z,1029.79
2023-02-14T19:14:07.426Z,1029.81
2023-02-14T19:15:07.433Z,1029.82
2023-02-14T19:16:07.445Z,1029.83
2023-02-14T19:17:07.382Z,1029.81
2023-02-14T19:18:07.366Z,1029.83
2023-02-14T19:19:07.368Z,1029.83
2023-02-14T19:20:07.362Z,1029.85
2023-02-14T19:21:07.365Z,1029.85
2023-02-14T19:22:07.372Z,1029.84
2023-02-14T19:23:07.327Z,1029.79
2023-02-14T19:24:07.317Z,1029.83
2023-02-14T19:25:07.297Z,1029.76
2023-02-14T19:26:07.248Z,1029.81
2023-02-14T19:27:07.273Z,1029.76
2023-02-14T19:28:07.261Z,1029.77
2023-02-14T19:29:07.227Z,1029.76
2023-02-14T19:30:07.283Z,1029.76
2023-02-14T19:31:07.262Z,1029.71
2023-02-14T19:32:07.219Z,1029.67
2023-02-14T19:33:07.174Z,1029.70
2023-02-14T19:34:07.204Z,1029.65
2023-02-14T19:35:07.157Z,1029.64
2023-02-14T19:36:07.201Z,1029.65
2023-02-14T19:37:07.120Z,1029.63
2023-02-14T19:38:07.092Z,1029.68
2023-02-14T19:39:07.110Z,1029.67
2023-02-14T19:40:07.101Z,1029.61
2023-02-14T19:41:07.096Z,1029.64
2023-02-14T19:42:07.056Z,1029.64
2023-02-14T19:43:07.037Z,1029.70
2023-02-14T19:44:07.045Z,1029.69
2023-02-14T19:45:07.035Z,1029.70
2023-02-14T19:46:07.092Z,1029.71
2023-02-14T19:47:19.404Z,1029.70
2023-02-14T19:48:07.966Z,1029.70
2023-02-14T19:49:06.961Z,1029.66
2023-02-14T19:50:06.944Z,1029.66
2023-02-14T19:51:06.929Z,1029.61
2023-02-14T19:52:14.161Z,1029.60
2023-02-14T19:53:07.918Z,1029.55
2023-02-14T19:54:07.022Z,1029.54
2023-02-14T19:55:06.933Z,1029.50
2023-02-14T19:56:06.872Z,1029.51
2023-02-14T19:57:06.862Z,1029.49
2023-02-14T19:58:06.869Z,1029.51
2023-02-14T19:59:06.827Z,1029.48
2023-02-14T20:00:06.826Z,1029.52
2023-02-14T20:01:06.886Z,1029.52
2023-02-14T20:02:06.832Z,1029.47
2023-02-14T20:03:06.778Z,1029.48
2023-02-14T20:04:06.742Z,1029.49
2023-02-14T20:05:06.751Z,1029.43
2023-02-14T20:06:06.728Z,1029.48
2023-02-14T20:07:06.745Z,1029.46
2023-02-14T20:08:06.754Z,1029.45
2023-02-14T20:09:06.698Z,1029.42
2023-02-14T20:10:06.672Z,1029.40
2023-02-14T20:11:06.686Z,1029.40
2023-02-14T20:12:06.667Z,1029.41
2023-02-14T20:13:06.646Z,1029.43
2023-02-14T20:14:06.617Z,1029.41
2023-02-14T20:15:07.090Z,1029.42
2023-02-14T20:16:06.587Z,1029.40
2023-02-14T20:17:06.636Z,1029.43
2023-02-14T20:18:06.559Z,1029.41
2023-02-14T20:19:06.565Z,1029.40
2023-02-14T20:20:06.619Z,1029.43
2023-02-14T20:21:06.536Z,1029.41
2023-02-14T20:22:06.533Z,1029.41
2023-02-14T20:23:06.516Z,1029.37
2023-02-14T20:24:06.485Z,1029.35
2023-02-14T20:25:06.497Z,1029.40
2023-02-14T20:26:06.453Z,1029.38
2023-02-14T20:27:06.487Z,1029.35
2023-02-14T20:28:06.477Z,1029.33
2023-02-14T20:29:06.438Z,1029.30
2023-02-14T20:30:06.504Z,1029.34
2023-02-14T20:31:06.579Z,1029.33
2023-02-14T20:32:06.426Z,1029.32
2023-02-14T20:33:06.376Z,1029.30
2023-02-14T20:34:06.349Z,1029.33
2023-02-14T20:35:06.335Z,1029.35
2023-02-14T20:36:06.373Z,1029.31
2023-02-14T20:37:06.327Z,1029.33
2023-02-14T20:38:06.324Z,1029.33
2023-02-14T20:39:06.301Z,1029.34
2023-02-14T20:40:06.278Z,1029.36
2023-02-14T20:41:06.272Z,1029.35
2023-02-14T20:42:06.272Z,1029.36
2023-02-14T20:43:06.385Z,1029.35
2023-02-14T20:44:06.296Z,1029.34
2023-02-14T20:45:06.211Z,1029.29
2023-02-14T20:46:06.217Z,1029.28
2023-02-14T20:47:06.206Z,1029.33
2023-02-14T20:48:06.169Z,1029.37
2023-02-14T20:49:06.152Z,1029.33
2023-02-14T20:50:06.141Z,1029.36
2023-02-14T20:51:06.111Z,1029.31
2023-02-14T20:52:06.123Z,1029.37
2023-02-14T20:53:06.183Z,1029.35
2023-02-14T20:54:06.128Z,1029.39
2023-02-14T20:55:06.125Z,1029.35
2023-02-14T20:56:06.054Z,1029.36
2023-02-14T20:57:06.050Z,1029.35
2023-02-14T20:58:06.035Z,1029.36
2023-02-14T20:59:06.043Z,1029.35
2023-02-14T21:00:06.059Z,1029.39
2023-02-14T21:01:06.093Z,1029.34
2023-02-14T21:02:05.980Z,1029.36
2023-02-14T21:03:05.967Z,1029.45
2023-02-14T21:04:05.951Z,1029.40
2023-02-14T21:05:05.971Z,1029.39
2023-02-14T21:06:05.922Z,1029.34
2023-02-14T21:07:05.971Z,1029.32
2023-02-14T21:08:05.915Z,1029.34
2023-02-14T21:09:05.962Z,1029.34
2023-02-14T21:10:06.022Z,1029.31
2023-02-14T21:11:05.873Z,1029.28
2023-02-14T21:12:05.832Z,1029.34
2023-02-14T21:13:05.860Z,1029.37
2023-02-14T21:14:05.819Z,1029.39
2023-02-14T21:15:05.804Z,1029.40
2023-02-14T21:16:05.999Z,1029.42
2023-02-14T21:17:05.772Z,1029.38
2023-02-14T21:18:05.781Z,1029.44
2023-02-14T21:19:05.749Z,1029.44
2023-02-14T21:20:05.759Z,1029.44
2023-02-14T21:21:05.747Z,1029.46
2023-02-14T21:22:05.737Z,1029.43
2023-02-14T21:23:13.279Z,1029.41
2023-02-14T21:24:05.712Z,1029.38
2023-02-14T21:25:15.031Z,1029.37
2023-02-14T21:26:05.712Z,1029.42
2023-02-14T21:27:05.669Z,1029.43
2023-02-14T21:28:05.651Z,1029.42
2023-02-14T21:29:05.627Z,1029.44
2023-02-14T21:30:05.643Z,1029.46
2023-02-14T21:31:05.707Z,1029.48
2023-02-14T21:32:05.688Z,1029.43
2023-02-14T21:33:05.562Z,1029.40
2023-02-14T21:34:05.570Z,1029.38
2023-02-14T21:35:05.546Z,1029.39
2023-02-14T21:36:05.545Z,1029.40
2023-02-14T21:37:05.510Z,1029.38
2023-02-14T21:38:05.527Z,1029.38
2023-02-14T21:39:05.496Z,1029.36
2023-02-14T21:40:05.484Z,1029.35
2023-02-14T21:41:05.462Z,1029.36
2023-02-14T21:42:05.445Z,1029.35
2023-02-14T21:43:05.433Z,1029.31
2023-02-14T21:44:05.445Z,1029.33
2023-02-14T21:45:05.420Z,1029.30
2023-02-14T21:46:06.593Z,1029.28
2023-02-14T21:47:05.381Z,1029.25
2023-02-14T21:48:05.377Z,1029.23
2023-02-14T21:49:05.351Z,1029.19
2023-02-14T21:50:05.360Z,1029.18
2023-02-14T21:51:06.611Z,1029.22
2023-02-14T21:52:05.364Z,1029.21
2023-02-14T21:53:05.299Z,1029.18
2023-02-14T21:54:05.327Z,1029.15
2023-02-14T21:55:05.291Z,1029.16
2023-02-14T21:56:05.282Z,1029.20
2023-02-14T21:57:05.273Z,1029.16
2023-02-14T21:58:05.328Z,1029.20
2023-02-14T21:59:05.241Z,1029.18
2023-02-14T22:00:05.235Z,1029.15
2023-02-14T22:01:05.213Z,1029.15
2023-02-14T22:02:12.696Z,1029.16
2023-02-14T22:03:14.363Z,1029.15
2023-02-14T22:04:12.716Z,1029.10
2023-02-14T22:05:12.727Z,1029.14
2023-02-14T22:06:12.654Z,1029.14
2023-02-14T22:07:12.665Z,1029.12
2023-02-14T22:08:12.656Z,1029.16
2023-02-14T22:09:15.827Z,1029.12
2023-02-14T22:10:12.622Z,1029.15
2023-02-14T22:11:12.633Z,1029.18
2023-02-14T22:12:05.064Z,1029.16
2023-02-14T22:13:05.025Z,1029.18
2023-02-14T22:14:05.030Z,1029.15
2023-02-14T22:15:12.533Z,1029.14
2023-02-14T22:16:05.106Z,1029.13
2023-02-14T22:17:04.988Z,1029.15
2023-02-14T22:18:04.972Z,1029.09
2023-02-14T22:19:04.967Z,1029.07
2023-02-14T22:20:04.962Z,1029.07
2023-02-14T22:21:06.721Z,1029.05
2023-02-14T22:22:04.940Z,1029.02
2023-02-14T22:23:04.936Z,1029.01
2023-02-14T22:24:04.955Z,1029.04
2023-02-14T22:25:04.879Z,1029.01
2023-02-14T22:26:04.884Z,1029.01
2023-02-14T22:27:04.860Z,1029.02
2023-02-14T22:28:04.890Z,1029.03
2023-02-14T22:29:04.843Z,1029.02
2023-02-14T22:30:04.860Z,1029.00
2023-02-14T22:31:05.118Z,1028.98
2023-02-14T22:32:04.904Z,1028.99
2023-02-14T22:33:04.761Z,1028.99
2023-02-14T22:34:04.760Z,1029.04
2023-02-14T22:35:04.768Z,1029.02
2023-02-14T22:36:04.825Z,1029.00
2023-02-14T22:37:04.717Z,1028.98
2023-02-14T22:38:04.735Z,1029.00
2023-02-14T22:39:04.747Z,1029.00
2023-02-14T22:40:04.712Z,1029.00
2023-02-14T22:41:04.684Z,1028.99
2023-02-14T22:42:04.660Z,1028.96
2023-02-14T22:43:04.623Z,1028.97
2023-02-14T22:44:04.656Z,1028.93
2023-02-14T22:45:04.655Z,1028.98
2023-02-14T22:46:04.629Z,1028.95
2023-02-14T22:47:04.632Z,1028.94
2023-02-14T22:48:04.581Z,1028.94
2023-02-14T22:49:04.638Z,1028.97
2023-02-14T22:50:04.546Z,1028.94
2023-02-14T22:51:04.538Z,1028.93
2023-02-14T22:52:04.522Z,1028.94
2023-02-14T22:53:07.660Z,1028.92
2023-02-14T22:54:04.525Z,1028.91
2023-02-14T22:55:04.520Z,1028.93
2023-02-14T22:56:04.500Z,1028.89
2023-02-14T22:57:04.501Z,1028.85
2023-02-14T22:58:04.462Z,1028.83
